Time;durP1;ratioP1;P1;durP2;ratioP2;P2;SDS_P1;SDS_P2;PMS_P1;PMS_P2;Temp;Humidity;BMP_temperature;BMP_pressure;BME280_temperature;BME280_humidity;BME280_pressure;Samples;Min_cycle;Max_cycle;Signal;HPM_P1;HPM_P2
2022/02/23 00:00:58;;;;;;;4.38;0.22;;;;;;;;;;5096709;28;20039;-90
2022/02/23 00:03:24;;;;;;;0.00;0.00;;;;;;;;;;5097255;28;20130;-89
2022/02/23 00:05:49;;;;;;;0.10;0.10;;;;;;;;;;5080266;28;20035;-90
2022/02/23 00:08:15;;;;;;;0.03;0.03;;;;;;;;;;5080085;28;20063;-91
2022/02/23 00:10:41;;;;;;;0.00;0.00;;;;;;;;;;5080150;28;20043;-91
2022/02/23 00:13:07;;;;;;;0.10;0.10;;;;;;;;;;5080198;28;20032;-92
2022/02/23 00:15:33;;;;;;;0.05;0.05;;;;;;;;;;5080391;28;20104;-91
2022/02/23 00:17:59;;;;;;;0.00;0.00;;;;;;;;;;5080313;28;20047;-91
2022/02/23 00:20:25;;;;;;;0.10;0.10;;;;;;;;;;5097053;28;20039;-92
2022/02/23 00:22:51;;;;;;;0.10;0.10;;;;;;;;;;5097052;28;20395;-90
2022/02/23 00:25:17;;;;;;;0.10;0.10;;;;;;;;;;5080028;28;20036;-91
2022/02/23 00:27:43;;;;;;;0.10;0.10;;;;;;;;;;5079733;28;20059;-91
2022/02/23 00:30:10;;;;;;;0.10;0.10;;;;;;;;;;5096908;28;20055;-92
2022/02/23 00:32:36;;;;;;;0.00;0.00;;;;;;;;;;5079831;28;20047;-91
2022/02/23 00:35:02;;;;;;;0.00;0.00;;;;;;;;;;5080196;28;20490;-91
2022/02/23 00:37:28;;;;;;;0.20;0.20;;;;;;;;;;5096762;28;20523;-91
2022/02/23 00:39:54;;;;;;;0.10;0.10;;;;;;;;;;5096305;28;20290;-91
2022/02/23 00:42:20;;;;;;;0.00;0.00;;;;;;;;;;5079580;28;20036;-91
2022/02/23 00:44:46;;;;;;;0.10;0.10;;;;;;;;;;5096587;28;20067;-91
2022/02/23 00:47:12;;;;;;;0.10;0.10;;;;;;;;;;5096337;28;20035;-92
2022/02/23 00:49:38;;;;;;;0.10;0.10;;;;;;;;;;5096496;28;20046;-91
2022/02/23 00:52:07;;;;;;;0.00;0.00;;;;;;;;;;5079507;28;20050;-91
2022/02/23 00:54:34;;;;;;;0.00;0.00;;;;;;;;;;5080313;28;20050;-91
2022/02/23 00:57:00;;;;;;;0.10;0.10;;;;;;;;;;5079779;28;20050;-92
2022/02/23 00:59:26;;;;;;;0.10;0.10;;;;;;;;;;5079530;28;20047;-92
2022/02/23 01:01:52;;;;;;;0.10;0.10;;;;;;;;;;5096312;28;20047;-92
2022/02/23 01:04:18;;;;;;;0.10;0.10;;;;;;;;;;5079822;28;20469;-91
2022/02/23 01:06:44;;;;;;;0.00;0.00;;;;;;;;;;5095156;28;20047;-91
2022/02/23 01:09:10;;;;;;;0.10;0.10;;;;;;;;;;5079335;28;20181;-91
2022/02/23 01:11:37;;;;;;;0.10;0.10;;;;;;;;;;5095839;28;20038;-91
2022/02/23 01:14:03;;;;;;;0.10;0.10;;;;;;;;;;5079106;28;20039;-91
2022/02/23 01:16:28;;;;;;;0.10;0.10;;;;;;;;;;5079338;28;20093;-92
2022/02/23 01:18:54;;;;;;;0.10;0.10;;;;;;;;;;5079420;28;20047;-92
2022/02/23 01:21:20;;;;;;;0.00;0.00;;;;;;;;;;5096045;28;20031;-91
2022/02/23 01:23:46;;;;;;;0.10;0.10;;;;;;;;;;5113088;28;20126;-93
2022/02/23 01:26:12;;;;;;;0.10;0.10;;;;;;;;;;5095827;28;20497;-90
2022/02/23 01:28:38;;;;;;;0.00;0.00;;;;;;;;;;5078351;28;20048;-91
2022/02/23 01:31:05;;;;;;;0.00;0.00;;;;;;;;;;5095625;28;20555;-90
2022/02/23 01:33:30;;;;;;;0.00;0.00;;;;;;;;;;5095691;28;20039;-90
2022/02/23 01:35:56;;;;;;;0.10;0.10;;;;;;;;;;5112597;28;20096;-90
2022/02/23 01:38:22;;;;;;;0.10;0.10;;;;;;;;;;5095453;28;20079;-91
2022/02/23 01:40:48;;;;;;;0.10;0.10;;;;;;;;;;5095376;28;20047;-89
2022/02/23 01:43:14;;;;;;;0.10;0.10;;;;;;;;;;5078443;28;20047;-89
2022/02/23 01:45:40;;;;;;;0.00;0.00;;;;;;;;;;5078286;28;20096;-91
2022/02/23 01:48:06;;;;;;;0.10;0.10;;;;;;;;;;5078494;28;20031;-90
2022/02/23 01:50:32;;;;;;;0.10;0.10;;;;;;;;;;5095214;28;20045;-91
2022/02/23 01:52:59;;;;;;;0.10;0.10;;;;;;;;;;5095850;28;20032;-91
2022/02/23 01:55:25;;;;;;;0.03;0.03;;;;;;;;;;5112909;28;20043;-92
2022/02/23 01:57:51;;;;;;;0.10;0.10;;;;;;;;;;5095307;28;20044;-91
2022/02/23 02:00:17;;;;;;;0.10;0.10;;;;;;;;;;5095265;28;20075;-90
2022/02/23 02:02:44;;;;;;;0.00;0.00;;;;;;;;;;5078821;28;20390;-91
2022/02/23 02:05:10;;;;;;;0.10;0.10;;;;;;;;;;5112160;28;20044;-91
2022/02/23 02:07:36;;;;;;;0.10;0.10;;;;;;;;;;5078573;28;20118;-91
2022/02/23 02:10:02;;;;;;;0.00;0.00;;;;;;;;;;5078453;28;20062;-91
2022/02/23 02:12:28;;;;;;;0.10;0.10;;;;;;;;;;5095373;28;20127;-90
2022/02/23 02:14:54;;;;;;;0.00;0.00;;;;;;;;;;5078522;28;20126;-92
2022/02/23 02:17:20;;;;;;;0.10;0.10;;;;;;;;;;5079123;28;20039;-90
2022/02/23 02:19:46;;;;;;;0.10;0.10;;;;;;;;;;5082482;28;20035;-92
2022/02/23 02:22:12;;;;;;;0.10;0.10;;;;;;;;;;5099432;28;20043;-91
2022/02/23 02:24:39;;;;;;;0.00;0.00;;;;;;;;;;5099395;28;20099;-90
2022/02/23 02:27:06;;;;;;;0.20;0.20;;;;;;;;;;5081827;28;20039;-91
2022/02/23 02:29:32;;;;;;;0.00;0.00;;;;;;;;;;5099232;28;20127;-91
2022/02/23 02:31:58;;;;;;;0.10;0.10;;;;;;;;;;5081919;28;20039;-91
2022/02/23 02:34:24;;;;;;;0.10;0.10;;;;;;;;;;5099164;28;20096;-91
2022/02/23 02:36:50;;;;;;;0.10;0.10;;;;;;;;;;5098654;28;20043;-91
2022/02/23 02:39:16;;;;;;;0.10;0.10;;;;;;;;;;5098646;28;20660;-90
2022/02/23 02:41:42;;;;;;;0.20;0.20;;;;;;;;;;5081777;28;20051;-92
2022/02/23 02:44:08;;;;;;;0.10;0.10;;;;;;;;;;5082139;28;20127;-91
2022/02/23 02:46:34;;;;;;;0.08;0.08;;;;;;;;;;5098820;28;20039;-90
2022/02/23 02:49:01;;;;;;;0.10;0.10;;;;;;;;;;5081728;28;20085;-91
2022/02/23 02:51:26;;;;;;;0.10;0.10;;;;;;;;;;5115483;28;20490;-92
2022/02/23 02:53:52;;;;;;;0.03;0.03;;;;;;;;;;5098609;28;20149;-91
2022/02/23 02:56:18;;;;;;;0.20;0.10;;;;;;;;;;5081442;28;20046;-91
2022/02/23 02:58:51;;;;;;;0.10;0.10;;;;;;;;;;5081693;28;20039;-91
2022/02/23 03:01:17;;;;;;;0.10;0.10;;;;;;;;;;5082831;28;20486;-90
2022/02/23 03:03:43;;;;;;;0.10;0.10;;;;;;;;;;5081732;28;20039;-92
2022/02/23 03:06:09;;;;;;;0.10;0.10;;;;;;;;;;5081608;28;20036;-91
2022/02/23 03:08:35;;;;;;;0.10;0.10;;;;;;;;;;5098519;28;20071;-92
2022/02/23 03:11:01;;;;;;;0.10;0.10;;;;;;;;;;5098534;28;20031;-92
2022/02/23 03:13:27;;;;;;;0.10;0.10;;;;;;;;;;5081790;28;20397;-92
2022/02/23 03:15:53;;;;;;;0.10;0.10;;;;;;;;;;5098667;28;20077;-92
2022/02/23 03:18:19;;;;;;;0.10;0.10;;;;;;;;;;5098242;28;20134;-92
2022/02/23 03:20:45;;;;;;;0.10;0.10;;;;;;;;;;5081637;28;20055;-92
2022/02/23 03:23:11;;;;;;;0.10;0.10;;;;;;;;;;5098065;28;20031;-92
2022/02/23 03:25:37;;;;;;;0.00;0.00;;;;;;;;;;5081201;28;20051;-92
2022/02/23 03:28:03;;;;;;;0.00;0.00;;;;;;;;;;5081503;28;20138;-92
2022/02/23 03:30:30;;;;;;;0.10;0.10;;;;;;;;;;5080937;28;20071;-92
2022/02/23 03:32:55;;;;;;;0.10;0.10;;;;;;;;;;5081876;28;20088;-91
2022/02/23 03:35:27;;;;;;;0.10;0.10;;;;;;;;;;5081394;28;20474;-91
2022/02/23 03:37:53;;;;;;;0.10;0.10;;;;;;;;;;5082052;28;20036;-92
2022/02/23 03:40:19;;;;;;;0.10;0.10;;;;;;;;;;5081282;28;20513;-92
2022/02/23 03:42:45;;;;;;;0.10;0.10;;;;;;;;;;5081030;28;20061;-91
2022/02/23 03:45:11;;;;;;;0.10;0.10;;;;;;;;;;5081322;28;20077;-92
2022/02/23 03:47:38;;;;;;;0.00;0.00;;;;;;;;;;5080916;28;20043;-92
2022/02/23 03:50:04;;;;;;;0.08;0.08;;;;;;;;;;5114509;28;20112;-90
2022/02/23 03:52:30;;;;;;;0.10;0.10;;;;;;;;;;5080943;28;20049;-91
2022/02/23 03:54:56;;;;;;;0.10;0.10;;;;;;;;;;5081049;28;20505;-91
2022/02/23 03:57:22;;;;;;;0.10;0.10;;;;;;;;;;5080496;28;20050;-92
2022/02/23 03:59:48;;;;;;;0.10;0.10;;;;;;;;;;5080468;28;20123;-91
2022/02/23 04:02:14;;;;;;;0.10;0.10;;;;;;;;;;5096987;28;20046;-91
2022/02/23 04:04:40;;;;;;;0.10;0.10;;;;;;;;;;5080322;28;20032;-91
2022/02/23 04:07:07;;;;;;;0.10;0.10;;;;;;;;;;5097145;28;20082;-91
2022/02/23 04:09:33;;;;;;;0.10;0.10;;;;;;;;;;5080702;28;20130;-91
2022/02/23 04:11:59;;;;;;;0.08;0.08;;;;;;;;;;5097363;28;20490;-91
2022/02/23 04:14:25;;;;;;;0.10;0.10;;;;;;;;;;5080338;28;20070;-92
2022/02/23 04:16:51;;;;;;;0.10;0.10;;;;;;;;;;5097179;28;20039;-92
2022/02/23 04:19:17;;;;;;;0.10;0.10;;;;;;;;;;5080382;28;20455;-92
2022/02/23 04:21:43;;;;;;;0.10;0.10;;;;;;;;;;5080333;28;20089;-91
2022/02/23 04:24:09;;;;;;;0.10;0.10;;;;;;;;;;5097086;28;20047;-91
2022/02/23 04:26:35;;;;;;;0.10;0.10;;;;;;;;;;5079862;28;20043;-91
2022/02/23 04:29:02;;;;;;;0.10;0.10;;;;;;;;;;5079866;28;20077;-91
2022/02/23 04:31:28;;;;;;;0.10;0.10;;;;;;;;;;5096741;28;20043;-91
2022/02/23 04:33:54;;;;;;;0.10;0.10;;;;;;;;;;5096572;28;20114;-90
2022/02/23 04:36:20;;;;;;;0.10;0.10;;;;;;;;;;5096600;28;20070;-90
2022/02/23 04:38:47;;;;;;;0.05;0.05;;;;;;;;;;5079628;28;20126;-92
2022/02/23 04:41:13;;;;;;;0.05;0.05;;;;;;;;;;5096495;28;20096;-91
2022/02/23 04:43:39;;;;;;;0.10;0.10;;;;;;;;;;5096301;28;20050;-90
2022/02/23 04:46:07;;;;;;;0.10;0.10;;;;;;;;;;5079545;28;20363;-91
2022/02/23 04:48:34;;;;;;;0.10;0.10;;;;;;;;;;5080054;28;20545;-91
2022/02/23 04:51:00;;;;;;;0.10;0.10;;;;;;;;;;5079553;28;20035;-91
2022/02/23 04:53:26;;;;;;;0.10;0.10;;;;;;;;;;5079378;28;20042;-92
2022/02/23 04:55:52;;;;;;;0.00;0.00;;;;;;;;;;5079643;28;20518;-92
2022/02/23 04:58:18;;;;;;;0.10;0.10;;;;;;;;;;5096255;28;20042;-91
2022/02/23 05:00:44;;;;;;;0.10;0.10;;;;;;;;;;5079600;28;20039;-92
2022/02/23 05:03:10;;;;;;;0.10;0.10;;;;;;;;;;5096302;28;20043;-91
2022/02/23 05:05:36;;;;;;;0.00;0.00;;;;;;;;;;5079421;28;20058;-92
2022/02/23 05:08:02;;;;;;;0.10;0.10;;;;;;;;;;5079468;28;20043;-92
2022/02/23 05:10:28;;;;;;;0.10;0.10;;;;;;;;;;5079500;28;20130;-92
2022/02/23 05:12:54;;;;;;;0.10;0.10;;;;;;;;;;5079172;28;20115;-91
2022/02/23 05:15:20;;;;;;;0.10;0.10;;;;;;;;;;5095934;28;20514;-91
2022/02/23 05:17:46;;;;;;;0.10;0.10;;;;;;;;;;5095655;28;20040;-91
2022/02/23 05:20:12;;;;;;;0.10;0.10;;;;;;;;;;5095901;28;20174;-91
2022/02/23 05:22:38;;;;;;;0.10;0.10;;;;;;;;;;5095763;28;20465;-91
2022/02/23 05:25:04;;;;;;;0.10;0.10;;;;;;;;;;5079442;28;20336;-92
2022/02/23 05:27:30;;;;;;;0.10;0.10;;;;;;;;;;5095974;28;20055;-91
2022/02/23 05:29:56;;;;;;;0.10;0.10;;;;;;;;;;5078666;28;20086;-91
2022/02/23 05:32:22;;;;;;;0.00;0.00;;;;;;;;;;5095742;28;20039;-90
2022/02/23 05:34:48;;;;;;;0.10;0.10;;;;;;;;;;5078870;28;20049;-91
2022/02/23 05:37:14;;;;;;;0.00;0.00;;;;;;;;;;5095705;28;20039;-91
2022/02/23 05:39:40;;;;;;;0.10;0.10;;;;;;;;;;5095409;28;20474;-92
2022/02/23 05:42:06;;;;;;;0.10;0.10;;;;;;;;;;5078889;28;20040;-91
2022/02/23 05:44:32;;;;;;;0.10;0.10;;;;;;;;;;5095486;28;20046;-92
2022/02/23 05:46:58;;;;;;;0.10;0.10;;;;;;;;;;5078289;28;20203;-91
2022/02/23 05:49:24;;;;;;;0.08;0.08;;;;;;;;;;5095335;28;20375;-90
2022/02/23 05:51:51;;;;;;;0.10;0.10;;;;;;;;;;5094947;28;20040;-91
2022/02/23 05:54:17;;;;;;;0.10;0.10;;;;;;;;;;5078326;28;20046;-92
2022/02/23 05:56:43;;;;;;;0.10;0.10;;;;;;;;;;5078511;28;20044;-92
2022/02/23 05:59:09;;;;;;;0.00;0.00;;;;;;;;;;5078878;28;20446;-91
2022/02/23 06:01:35;;;;;;;0.08;0.08;;;;;;;;;;5078546;28;20039;-92
2022/02/23 06:04:01;;;;;;;0.10;0.10;;;;;;;;;;5095064;28;20393;-91
2022/02/23 06:06:27;;;;;;;0.00;0.00;;;;;;;;;;5078214;28;20048;-92
2022/02/23 06:08:53;;;;;;;0.10;0.10;;;;;;;;;;5078801;28;20122;-92
2022/02/23 06:11:19;;;;;;;0.10;0.10;;;;;;;;;;5095639;28;20051;-93
2022/02/23 06:13:51;;;;;;;0.10;0.10;;;;;;;;;;5078805;28;20036;-92
2022/02/23 06:16:24;;;;;;;0.10;0.10;;;;;;;;;;5096281;28;20043;-93
2022/02/23 06:18:50;;;;;;;0.10;0.10;;;;;;;;;;5078642;28;20044;-92
2022/02/23 06:21:16;;;;;;;0.10;0.10;;;;;;;;;;5095143;28;20385;-90
2022/02/23 06:23:43;;;;;;;0.00;0.00;;;;;;;;;;5077923;28;20055;-90
2022/02/23 06:26:09;;;;;;;0.10;0.10;;;;;;;;;;5077765;28;20089;-90
2022/02/23 06:28:35;;;;;;;0.10;0.10;;;;;;;;;;5077590;28;20052;-90
2022/02/23 06:31:01;;;;;;;0.00;0.00;;;;;;;;;;5077870;28;20434;-90
2022/02/23 06:33:28;;;;;;;0.10;0.10;;;;;;;;;;5094561;28;20058;-90
2022/02/23 06:35:54;;;;;;;0.10;0.10;;;;;;;;;;5111433;28;20047;-91
2022/02/23 06:38:20;;;;;;;0.10;0.10;;;;;;;;;;5111856;28;20126;-91
2022/02/23 06:40:46;;;;;;;0.08;0.08;;;;;;;;;;5094890;28;20147;-91
2022/02/23 06:43:16;;;;;;;0.00;0.00;;;;;;;;;;5094812;28;20043;-90
2022/02/23 06:45:44;;;;;;;0.08;0.08;;;;;;;;;;5094406;28;20047;-90
2022/02/23 06:48:10;;;;;;;0.00;0.00;;;;;;;;;;5111462;28;20516;-91
2022/02/23 06:50:36;;;;;;;0.05;0.05;;;;;;;;;;5111649;28;20071;-90
2022/02/23 06:53:02;;;;;;;0.10;0.10;;;;;;;;;;5111531;28;20414;-90
2022/02/23 06:55:28;;;;;;;0.03;0.03;;;;;;;;;;5077476;28;20040;-90
2022/02/23 06:57:54;;;;;;;0.00;0.00;;;;;;;;;;5077396;28;20126;-90
2022/02/23 07:00:20;;;;;;;0.00;0.00;;;;;;;;;;5078458;28;20128;-92
2022/02/23 07:02:46;;;;;;;0.00;0.00;;;;;;;;;;5078173;28;20040;-92
2022/02/23 07:05:12;;;;;;;0.00;0.00;;;;;;;;;;5080901;28;20050;-93
2022/02/23 07:07:40;;;;;;;0.10;0.10;;;;;;;;;;5084093;28;20039;-96
2022/02/23 07:10:30;;;;;;;0.00;0.00;;;;;;;;;;5087203;28;20032;-96
2022/02/23 07:12:56;;;;;;;0.00;0.00;;;;;;;;;;5096844;28;20414;-93
2022/02/23 07:15:22;;;;;;;0.00;0.00;;;;;;;;;;5098978;28;20093;-92
2022/02/23 07:17:48;;;;;;;0.00;0.00;;;;;;;;;;5081643;28;20042;-92
2022/02/23 07:20:17;;;;;;;0.00;0.00;;;;;;;;;;5082225;28;20040;-96
2022/02/23 07:22:43;;;;;;;0.00;0.00;;;;;;;;;;5081652;28;20478;-95
2022/02/23 07:25:10;;;;;;;0.00;0.00;;;;;;;;;;5115716;28;20505;-94
2022/02/23 07:27:36;;;;;;;0.00;0.00;;;;;;;;;;5098702;28;20055;-94
2022/02/23 07:30:06;;;;;;;0.00;0.00;;;;;;;;;;5098940;28;20055;-92
2022/02/23 07:32:33;;;;;;;0.10;0.10;;;;;;;;;;5098546;28;20039;-94
2022/02/23 07:35:00;;;;;;;0.00;0.00;;;;;;;;;;5082024;28;20088;-93
2022/02/23 07:37:26;;;;;;;0.00;0.00;;;;;;;;;;5081048;28;20046;-92
2022/02/23 07:39:52;;;;;;;0.00;0.00;;;;;;;;;;5097965;28;20035;-93
2022/02/23 07:42:19;;;;;;;0.10;0.10;;;;;;;;;;5114739;28;20118;-92
2022/02/23 07:44:45;;;;;;;0.00;0.00;;;;;;;;;;5081217;28;20047;-93
2022/02/23 07:47:11;;;;;;;0.00;0.00;;;;;;;;;;5097836;28;20498;-92
2022/02/23 07:49:37;;;;;;;0.00;0.00;;;;;;;;;;5080672;28;20088;-92
2022/02/23 07:52:04;;;;;;;0.10;0.10;;;;;;;;;;5080689;28;20039;-92
2022/02/23 07:54:29;;;;;;;0.10;0.10;;;;;;;;;;5097623;28;20042;-92
2022/02/23 07:56:55;;;;;;;0.10;0.10;;;;;;;;;;5081230;28;20039;-96
2022/02/23 07:59:22;;;;;;;0.10;0.10;;;;;;;;;;5081191;28;20544;-92
2022/02/23 08:01:49;;;;;;;0.10;0.10;;;;;;;;;;5114255;28;20501;-91
2022/02/23 08:04:15;;;;;;;0.10;0.10;;;;;;;;;;5080636;28;20038;-91
2022/02/23 08:09:16;;;;;;;0.10;0.10;;;;;;;;;;5229142;22;20056;-94
2022/02/23 08:11:42;;;;;;;0.10;0.10;;;;;;;;;;5057463;28;20050;-89
2022/02/23 08:14:08;;;;;;;0.10;0.10;;;;;;;;;;5040512;28;20080;-89
2022/02/23 08:19:35;;;;;;;0.40;0.40;;;;;;;;;;5059534;28;20040;-91
2022/02/23 08:22:05;;;;;;;0.10;0.10;;;;;;;;;;5057313;28;20036;-91
2022/02/23 08:24:33;;;;;;;0.10;0.10;;;;;;;;;;5057452;28;20037;-90
2022/02/23 08:27:00;;;;;;;0.10;0.10;;;;;;;;;;5056944;28;20359;-92
2022/02/23 08:29:26;;;;;;;0.10;0.10;;;;;;;;;;5057218;28;20066;-90
2022/02/23 08:31:52;;;;;;;0.10;0.10;;;;;;;;;;5054937;28;20123;-90
2022/02/23 08:34:18;;;;;;;0.10;0.10;;;;;;;;;;5033981;28;20107;-91
2022/02/23 08:36:45;;;;;;;0.10;0.10;;;;;;;;;;5020187;28;20037;-90
2022/02/23 08:39:11;;;;;;;0.10;0.10;;;;;;;;;;5036842;28;20041;-90
2022/02/23 08:41:37;;;;;;;0.10;0.10;;;;;;;;;;5019945;28;20064;-90
2022/02/23 08:44:06;;;;;;;0.10;0.10;;;;;;;;;;5020355;28;20491;-91
2022/02/23 08:46:33;;;;;;;0.10;0.10;;;;;;;;;;5039371;28;20045;-90
2022/02/23 08:48:59;;;;;;;0.10;0.10;;;;;;;;;;5040032;28;20040;-90
2022/02/23 08:51:25;;;;;;;0.10;0.10;;;;;;;;;;5056488;28;20043;-91
2022/02/23 08:53:51;;;;;;;0.10;0.10;;;;;;;;;;5056196;28;20036;-95
2022/02/23 08:56:18;;;;;;;0.10;0.10;;;;;;;;;;5039533;28;20041;-91
2022/02/23 08:58:43;;;;;;;0.10;0.10;;;;;;;;;;5039383;28;20366;-91
2022/02/23 09:01:09;;;;;;;0.10;0.10;;;;;;;;;;5039460;28;20127;-92
2022/02/23 09:03:36;;;;;;;0.85;0.85;;;;;;;;;;5039368;28;20106;-92
2022/02/23 09:06:02;;;;;;;0.10;0.10;;;;;;;;;;5039591;28;20399;-91
2022/02/23 09:08:28;;;;;;;0.10;0.10;;;;;;;;;;5039231;28;20052;-91
2022/02/23 09:10:54;;;;;;;0.10;0.10;;;;;;;;;;5055579;28;20043;-90
2022/02/23 09:13:19;;;;;;;0.10;0.10;;;;;;;;;;5039278;28;20407;-90
2022/02/23 09:15:45;;;;;;;0.10;0.10;;;;;;;;;;5039147;28;20048;-94
2022/02/23 09:18:11;;;;;;;0.10;0.10;;;;;;;;;;5039879;28;20119;-93
2022/02/23 09:20:37;;;;;;;0.10;0.10;;;;;;;;;;5041579;28;20120;-95
2022/02/23 09:23:03;;;;;;;0.10;0.10;;;;;;;;;;5039564;28;20230;-93
2022/02/23 09:25:29;;;;;;;0.20;0.20;;;;;;;;;;5040043;28;20192;-92
2022/02/23 09:27:55;;;;;;;0.10;0.10;;;;;;;;;;5055208;28;20107;-93
2022/02/23 09:30:21;;;;;;;0.10;0.10;;;;;;;;;;5039113;28;20040;-92
2022/02/23 09:32:50;;;;;;;0.10;0.10;;;;;;;;;;5038501;28;20039;-94
2022/02/23 09:35:19;;;;;;;0.10;0.10;;;;;;;;;;5039987;28;20045;-95
2022/02/23 09:37:45;;;;;;;0.10;0.10;;;;;;;;;;5039319;28;20045;-95
2022/02/23 09:40:13;;;;;;;1.65;0.22;;;;;;;;;;5039584;28;20395;-95
2022/02/23 09:42:39;;;;;;;0.10;0.10;;;;;;;;;;5055877;28;20044;-95
2022/02/23 09:45:06;;;;;;;0.40;0.40;;;;;;;;;;5055742;28;20082;-95
2022/02/23 09:47:36;;;;;;;0.10;0.10;;;;;;;;;;5039446;28;20068;-91
2022/02/23 09:50:03;;;;;;;0.10;0.10;;;;;;;;;;5039627;28;20438;-92
2022/02/23 09:52:29;;;;;;;0.10;0.10;;;;;;;;;;5039135;28;20032;-93
2022/02/23 09:55:08;;;;;;;0.10;0.10;;;;;;;;;;5038999;28;20067;-94
2022/02/23 09:57:34;;;;;;;0.15;0.15;;;;;;;;;;5039405;28;20132;-93
2022/02/23 10:00:05;;;;;;;0.10;0.10;;;;;;;;;;5039165;28;20040;-95
2022/02/23 10:02:33;;;;;;;0.10;0.10;;;;;;;;;;5039605;28;20044;-93
2022/02/23 10:05:00;;;;;;;0.10;0.10;;;;;;;;;;5039187;28;20044;-93
2022/02/23 10:07:30;;;;;;;0.10;0.10;;;;;;;;;;5038597;28;20040;-93
2022/02/23 10:09:57;;;;;;;0.10;0.10;;;;;;;;;;5038853;28;20049;-91
2022/02/23 10:12:27;;;;;;;0.10;0.10;;;;;;;;;;5038995;28;20094;-90
2022/02/23 10:15:09;;;;;;;0.10;0.10;;;;;;;;;;5038709;28;20040;-92
2022/02/23 10:17:46;;;;;;;0.10;0.10;;;;;;;;;;5055116;28;20052;-91
2022/02/23 10:20:26;;;;;;;0.10;0.10;;;;;;;;;;5054961;28;20115;-92
2022/02/23 10:22:52;;;;;;;0.17;0.17;;;;;;;;;;5039720;28;20072;-93
2022/02/23 10:25:28;;;;;;;0.10;0.10;;;;;;;;;;5038619;28;20098;-93
2022/02/23 10:28:22;;;;;;;0.10;0.10;;;;;;;;;;5038843;28;20068;-93
2022/02/23 10:30:52;;;;;;;0.10;0.10;;;;;;;;;;5069736;28;20522;-95
2022/02/23 10:33:19;;;;;;;0.10;0.10;;;;;;;;;;5038822;28;20068;-94
2022/02/23 10:35:55;;;;;;;0.10;0.10;;;;;;;;;;5055262;28;20041;-92
2022/02/23 10:38:25;;;;;;;0.10;0.10;;;;;;;;;;5039440;28;20047;-94
2022/02/23 10:40:54;;;;;;;0.10;0.10;;;;;;;;;;5042415;28;20483;-92
2022/02/23 10:43:24;;;;;;;0.10;0.10;;;;;;;;;;5058882;28;20503;-91
2022/02/23 10:45:50;;;;;;;0.10;0.10;;;;;;;;;;5058529;28;20043;-90
2022/02/23 10:48:28;;;;;;;0.10;0.10;;;;;;;;;;5058197;28;20484;-90
2022/02/23 10:50:55;;;;;;;0.10;0.10;;;;;;;;;;5042364;28;20033;-91
2022/02/23 10:53:27;;;;;;;0.10;0.10;;;;;;;;;;5042133;28;20467;-92
2022/02/23 10:55:53;;;;;;;;;;;;;;;;;;5059631;28;20049;-92
2022/02/23 10:58:19;;;;;;;0.10;0.10;;;;;;;;;;5059138;28;19981;-94
2022/02/23 11:00:49;;;;;;;0.10;0.10;;;;;;;;;;5042371;28;20125;-92
2022/02/23 11:03:16;;;;;;;0.10;0.10;;;;;;;;;;5042766;28;20502;-91
2022/02/23 11:05:42;;;;;;;0.10;0.10;;;;;;;;;;5042035;28;20044;-92
2022/02/23 11:08:12;;;;;;;0.10;0.10;;;;;;;;;;5042073;28;20049;-92
2022/02/23 11:10:38;;;;;;;0.10;0.10;;;;;;;;;;5042631;28;20048;-92
2022/02/23 11:13:04;;;;;;;0.10;0.10;;;;;;;;;;5042293;28;20048;-90
2022/02/23 11:15:30;;;;;;;0.10;0.10;;;;;;;;;;5058424;28;20051;-93
2022/02/23 11:17:56;;;;;;;0.10;0.10;;;;;;;;;;5041761;28;20368;-93
2022/02/23 11:20:23;;;;;;;0.10;0.10;;;;;;;;;;5042375;28;20051;-92
2022/02/23 11:22:58;;;;;;;0.10;0.10;;;;;;;;;;5058222;28;20044;-92
2022/02/23 11:25:24;;;;;;;0.10;0.10;;;;;;;;;;5042482;28;20040;-92
2022/02/23 11:27:51;;;;;;;0.10;0.10;;;;;;;;;;5041560;28;20528;-92
2022/02/23 11:30:17;;;;;;;0.10;0.10;;;;;;;;;;5041144;28;20040;-89
2022/02/23 11:32:44;;;;;;;0.10;0.10;;;;;;;;;;5041250;28;20072;-91
2022/02/23 11:35:13;;;;;;;0.10;0.10;;;;;;;;;;5074133;28;20036;-91
2022/02/23 11:37:41;;;;;;;0.10;0.10;;;;;;;;;;5041789;28;20036;-93
2022/02/23 11:40:10;;;;;;;0.10;0.10;;;;;;;;;;5042269;28;20041;-93
2022/02/23 11:42:36;;;;;;;0.10;0.10;;;;;;;;;;5041745;28;20051;-92
2022/02/23 11:45:13;;;;;;;0.10;0.10;;;;;;;;;;5030646;28;20033;-90
2022/02/23 11:47:45;;;;;;;0.10;0.10;;;;;;;;;;5036698;28;20395;-90
2022/02/23 11:50:13;;;;;;;0.10;0.10;;;;;;;;;;5056997;28;20040;-91
2022/02/23 11:52:43;;;;;;;0.10;0.10;;;;;;;;;;5058428;28;20051;-90
2022/02/23 11:55:15;;;;;;;0.10;0.10;;;;;;;;;;5057875;28;20090;-91
2022/02/23 11:57:51;;;;;;;0.10;0.10;;;;;;;;;;5057330;28;20420;-90
2022/02/23 12:00:37;;;;;;;0.10;0.10;;;;;;;;;;5040823;28;20052;-90
2022/02/23 12:03:03;;;;;;;0.10;0.10;;;;;;;;;;5055622;28;20044;-90
2022/02/23 12:05:32;;;;;;;0.10;0.10;;;;;;;;;;5056927;28;20036;-91
2022/02/23 12:07:59;;;;;;;0.10;0.10;;;;;;;;;;5056924;28;20064;-91
2022/02/23 12:10:32;;;;;;;0.10;0.10;;;;;;;;;;5057323;28;20044;-90
2022/02/23 12:12:59;;;;;;;0.10;0.10;;;;;;;;;;5057382;28;20036;-91
2022/02/23 12:15:32;;;;;;;0.10;0.10;;;;;;;;;;5038521;28;20041;-91
2022/02/23 12:17:59;;;;;;;0.10;0.10;;;;;;;;;;5037633;28;20032;-92
2022/02/23 12:20:35;;;;;;;0.10;0.10;;;;;;;;;;5043069;28;20044;-92
2022/02/23 12:23:01;;;;;;;0.10;0.10;;;;;;;;;;5073878;28;20362;-91
2022/02/23 12:25:49;;;;;;;0.10;0.10;;;;;;;;;;5071439;28;20116;-92
2022/02/23 12:28:19;;;;;;;0.10;0.10;;;;;;;;;;5045777;28;20513;-92
2022/02/23 12:31:04;;;;;;;0.10;0.10;;;;;;;;;;5040781;28;20032;-92
2022/02/23 12:33:33;;;;;;;0.10;0.10;;;;;;;;;;5056907;28;20041;-92
2022/02/23 12:36:09;;;;;;;0.10;0.10;;;;;;;;;;5040483;28;20043;-92
2022/02/23 12:38:37;;;;;;;0.10;0.10;;;;;;;;;;5056774;28;20090;-91
2022/02/23 12:41:10;;;;;;;0.10;0.10;;;;;;;;;;5056530;28;20044;-90
2022/02/23 12:43:36;;;;;;;0.10;0.10;;;;;;;;;;5072914;28;20052;-90
2022/02/23 12:46:02;;;;;;;0.10;0.10;;;;;;;;;;5056312;28;20086;-91
2022/02/23 12:48:31;;;;;;;0.10;0.10;;;;;;;;;;5039423;28;20452;-90
2022/02/23 12:51:04;;;;;;;0.10;0.10;;;;;;;;;;5040042;28;20044;-91
2022/02/23 12:53:30;;;;;;;0.10;0.10;;;;;;;;;;5039478;28;20040;-88
2022/02/23 12:55:57;;;;;;;0.10;0.10;;;;;;;;;;5039368;28;20117;-89
2022/02/23 12:58:33;;;;;;;0.10;0.10;;;;;;;;;;5039069;28;20089;-90
2022/02/23 13:00:59;;;;;;;0.10;0.10;;;;;;;;;;5039461;28;20090;-91
2022/02/23 13:03:25;;;;;;;0.10;0.10;;;;;;;;;;5038753;28;20403;-91
2022/02/23 13:05:53;;;;;;;0.10;0.10;;;;;;;;;;5056044;28;20044;-92
2022/02/23 13:08:20;;;;;;;0.10;0.10;;;;;;;;;;5039365;28;20063;-89
2022/02/23 13:10:56;;;;;;;0.10;0.10;;;;;;;;;;5038718;28;20071;-90
2022/02/23 13:13:37;;;;;;;0.10;0.10;;;;;;;;;;5055800;28;20040;-91
2022/02/23 13:16:03;;;;;;;0.10;0.10;;;;;;;;;;5056319;28;20052;-90
2022/02/23 13:18:29;;;;;;;0.10;0.10;;;;;;;;;;5039085;28;20081;-90
2022/02/23 13:21:12;;;;;;;0.10;0.10;;;;;;;;;;5055698;28;20535;-90
2022/02/23 13:23:51;;;;;;;0.10;0.10;;;;;;;;;;5055377;28;20083;-90
2022/02/23 13:26:17;;;;;;;0.10;0.10;;;;;;;;;;5055546;28;20048;-90
2022/02/23 13:29:03;;;;;;;0.10;0.10;;;;;;;;;;5056015;28;20428;-89
2022/02/23 13:31:33;;;;;;;0.10;0.10;;;;;;;;;;5039059;28;20127;-93
2022/02/23 13:34:17;;;;;;;0.10;0.10;;;;;;;;;;5039327;28;20111;-90
2022/02/23 13:36:43;;;;;;;0.10;0.10;;;;;;;;;;5073007;28;20115;-92
2022/02/23 13:39:18;;;;;;;0.10;0.10;;;;;;;;;;5055794;28;20082;-90
2022/02/23 13:41:56;;;;;;;0.10;0.10;;;;;;;;;;5039541;28;20093;-89
2022/02/23 13:44:23;;;;;;;0.10;0.10;;;;;;;;;;5054988;28;20040;-89
2022/02/23 13:46:53;;;;;;;0.10;0.10;;;;;;;;;;5038042;28;20040;-88
2022/02/23 13:49:20;;;;;;;0.10;0.10;;;;;;;;;;5038314;28;20036;-92
2022/02/23 13:51:46;;;;;;;5.38;0.32;;;;;;;;;;5054724;28;20040;-92
2022/02/23 13:54:12;;;;;;;0.10;0.10;;;;;;;;;;5038938;28;20043;-92
2022/02/23 13:56:47;;;;;;;0.10;0.10;;;;;;;;;;5039169;28;20086;-91
2022/02/23 13:59:20;;;;;;;0.10;0.10;;;;;;;;;;5040800;28;20044;-92
2022/02/23 14:01:58;;;;;;;0.10;0.10;;;;;;;;;;5039439;28;20052;-93
2022/02/23 14:04:34;;;;;;;0.10;0.10;;;;;;;;;;5055324;28;20048;-89
2022/02/23 14:07:00;;;;;;;0.10;0.10;;;;;;;;;;5055591;28;20037;-91
2022/02/23 14:09:26;;;;;;;0.10;0.10;;;;;;;;;;5055311;28;20060;-91
2022/02/23 14:11:52;;;;;;;0.10;0.10;;;;;;;;;;5038753;28;20036;-91
2022/02/23 14:14:18;;;;;;;0.10;0.10;;;;;;;;;;5040868;28;20398;-90
2022/02/23 14:16:45;;;;;;;0.10;0.10;;;;;;;;;;5059851;28;20098;-91
2022/02/23 14:19:24;;;;;;;0.10;0.10;;;;;;;;;;5043531;28;20144;-90
2022/02/23 14:21:51;;;;;;;0.10;0.10;;;;;;;;;;5042482;28;20131;-90
2022/02/23 14:24:19;;;;;;;0.10;0.10;;;;;;;;;;5042906;28;20044;-89
2022/02/23 14:26:52;;;;;;;0.10;0.10;;;;;;;;;;5042938;28;20064;-89
2022/02/23 14:29:23;;;;;;;0.10;0.10;;;;;;;;;;5058812;28;20095;-90
2022/02/23 14:31:54;;;;;;;0.10;0.10;;;;;;;;;;5058920;28;20105;-91
2022/02/23 14:34:30;;;;;;;0.10;0.10;;;;;;;;;;5043045;28;20040;-90
2022/02/23 14:36:57;;;;;;;0.30;0.28;;;;;;;;;;5059153;28;20048;-90
2022/02/23 14:39:23;;;;;;;0.10;0.10;;;;;;;;;;5042342;28;20044;-90
2022/02/23 14:41:50;;;;;;;0.10;0.10;;;;;;;;;;5075621;28;20399;-91
2022/02/23 14:44:16;;;;;;;0.10;0.10;;;;;;;;;;5059289;28;20398;-91
2022/02/23 14:46:42;;;;;;;0.10;0.10;;;;;;;;;;5059184;28;20037;-90
2022/02/23 14:49:08;;;;;;;0.10;0.10;;;;;;;;;;5042261;28;20067;-90
2022/02/23 14:51:34;;;;;;;0.10;0.10;;;;;;;;;;5023691;28;20475;-90